createdAt,value
2018-10-07T20:57:35.996Z,8.30
2018-10-07T21:00:04.837Z,8.20
2018-10-07T21:02:33.929Z,8.40
2018-10-07T21:05:02.743Z,8.30
2018-10-07T21:07:33.448Z,8.30
2018-10-07T21:10:02.249Z,8.20
2018-10-07T21:12:30.858Z,8.10
2018-10-07T21:14:59.542Z,8.10
2018-10-07T21:17:28.172Z,8.40
2018-10-07T21:19:56.888Z,8.40
2018-10-07T21:22:32.491Z,8.50
2018-10-07T21:25:01.177Z,8.30
2018-10-07T21:27:29.890Z,8.30
2018-10-07T21:29:59.154Z,8.40
2018-10-07T21:32:27.832Z,8.40
2018-10-07T21:34:56.642Z,8.20
2018-10-07T21:37:25.325Z,8.30
2018-10-07T21:39:54.078Z,8.20
2018-10-07T21:42:23.832Z,7.90
2018-10-07T21:44:53.717Z,7.80
2018-10-07T21:47:22.464Z,7.70
2018-10-07T21:49:51.188Z,7.50
2018-10-07T21:52:20.057Z,7.50
2018-10-07T21:54:48.801Z,7.40
2018-10-07T21:57:17.499Z,7.20
2018-10-07T21:59:46.131Z,7.20
2018-10-07T22:02:14.830Z,7.30
2018-10-07T22:04:43.462Z,7.80
2018-10-07T22:07:12.101Z,8.20
2018-10-07T22:09:40.909Z,8.20
2018-10-07T22:12:09.681Z,8.10
2018-10-07T22:14:38.523Z,8.10
2018-10-07T22:17:07.487Z,8.10
2018-10-07T22:19:36.299Z,8.20
2018-10-07T22:22:05.030Z,8.00
2018-10-07T22:24:34.129Z,8.20
2018-10-07T22:27:02.766Z,8.10
2018-10-07T22:29:32.622Z,8.00
2018-10-07T22:32:01.558Z,8.00
2018-10-07T22:34:30.396Z,8.10
2018-10-07T22:36:59.222Z,8.10
2018-10-07T22:39:28.235Z,8.20
2018-10-07T22:41:57.033Z,8.10
2018-10-07T22:44:25.936Z,7.90
2018-10-07T22:46:54.670Z,7.90
2018-10-07T22:49:23.472Z,8.10
2018-10-07T22:51:52.378Z,8.20
2018-10-07T22:54:21.135Z,8.20
2018-10-07T22:56:49.944Z,8.20
2018-10-07T22:59:18.715Z,8.10
2018-10-07T23:01:47.522Z,8.20
2018-10-07T23:04:16.211Z,8.40
2018-10-07T23:06:44.998Z,8.00
2018-10-07T23:09:14.194Z,8.00
2018-10-07T23:11:43.421Z,8.40
2018-10-07T23:14:12.229Z,8.50
2018-10-07T23:16:41.400Z,8.30
2018-10-07T23:19:10.038Z,8.10
2018-10-07T23:21:38.750Z,8.10
2018-10-07T23:24:07.471Z,8.00
2018-10-07T23:26:36.206Z,7.90
2018-10-07T23:29:05.015Z,8.10
2018-10-07T23:31:33.816Z,8.00
2018-10-07T23:34:02.624Z,7.90
2018-10-07T23:36:31.525Z,7.80
2018-10-07T23:39:00.246Z,7.80
2018-10-07T23:41:29.081Z,8.00
2018-10-07T23:43:58.057Z,7.90
2018-10-07T23:46:26.968Z,7.80
2018-10-07T23:48:55.718Z,7.50
2018-10-07T23:51:24.517Z,7.40
2018-10-07T23:53:53.517Z,7.20
2018-10-07T23:56:22.350Z,7.10
2018-10-07T23:58:51.172Z,7.40
